Time;durP1;ratioP1;P1;durP2;ratioP2;P2;SDS_P1;SDS_P2;PMS_P1;PMS_P2;Temp;Humidity;BMP_temperature;BMP_pressure;BME280_temperature;BME280_humidity;BME280_pressure;Samples;Min_cycle;Max_cycle;Signal;HPM_P1;HPM_P2
2022/11/02 00:00:34;;;;;;;9.75;2.30;;;12.50;99.90;;;;;;6198372;22;20016;-84
2022/11/02 00:03:00;;;;;;;8.30;1.90;;;12.50;99.90;;;;;;6198622;22;20016;-85
2022/11/02 00:05:26;;;;;;;7.93;2.47;;;12.40;99.90;;;;;;6223580;22;20016;-85
2022/11/02 00:07:53;;;;;;;13.27;2.58;;;12.40;99.90;;;;;;6197676;22;20012;-84
2022/11/02 00:10:19;;;;;;;6.25;1.92;;;12.40;99.90;;;;;;6197377;22;20092;-85
2022/11/02 00:12:46;;;;;;;6.55;1.90;;;12.30;99.90;;;;;;6221695;23;20009;-85
2022/11/02 00:15:11;;;;;;;9.23;2.20;;;12.30;99.90;;;;;;6198220;22;20453;-85
2022/11/02 00:17:40;;;;;;;9.32;2.22;;;12.20;99.90;;;;;;6197358;22;20081;-85
2022/11/02 00:20:06;;;;;;;6.47;2.08;;;12.20;99.90;;;;;;6199293;22;20472;-84
2022/11/02 00:22:36;;;;;;;6.00;1.98;;;12.20;99.90;;;;;;6200724;22;20448;-85
2022/11/02 00:25:06;;;;;;;9.25;2.10;;;12.10;99.90;;;;;;6198786;23;20016;-83
2022/11/02 00:27:33;;;;;;;9.38;2.33;;;12.20;99.90;;;;;;6199244;22;20401;-83
2022/11/02 00:30:01;;;;;;;8.57;2.03;;;12.10;99.90;;;;;;6197841;22;20379;-84
2022/11/02 00:32:27;;;;;;;11.90;2.60;;;12.10;99.90;;;;;;6224049;23;20492;-84
2022/11/02 00:34:53;;;;;;;7.60;1.83;;;12.00;99.90;;;;;;6199100;22;20079;-84
2022/11/02 00:37:18;;;;;;;4.82;1.50;;;11.80;99.90;;;;;;6199457;22;20446;-84
2022/11/02 00:39:44;;;;;;;6.53;1.63;;;11.80;99.90;;;;;;6222973;23;20023;-84
2022/11/02 00:42:10;;;;;;;4.50;1.38;;;11.80;99.90;;;;;;6199131;22;20084;-84
2022/11/02 00:44:35;;;;;;;4.65;1.23;;;11.60;99.90;;;;;;6197908;22;20095;-85
2022/11/02 00:47:01;;;;;;;2.70;1.05;;;11.60;99.90;;;;;;6225152;22;20345;-84
2022/11/02 00:49:28;;;;;;;4.35;1.50;;;11.60;99.90;;;;;;6199038;23;20042;-84
2022/11/02 00:51:56;;;;;;;3.63;0.90;;;11.50;99.90;;;;;;6200215;23;20023;-85
2022/11/02 00:54:22;;;;;;;4.97;1.35;;;11.40;99.90;;;;;;6200028;22;20023;-84
2022/11/02 00:56:48;;;;;;;3.60;1.23;;;11.50;99.90;;;;;;6199292;22;20092;-85
2022/11/02 00:59:14;;;;;;;2.55;1.02;;;11.40;99.90;;;;;;6225970;22;20089;-84
2022/11/02 01:01:48;;;;;;;3.03;0.90;;;11.40;99.90;;;;;;6201678;22;20039;-84
2022/11/02 01:04:14;;;;;;;3.45;1.00;;;11.30;99.90;;;;;;6225693;23;20348;-85
2022/11/02 01:06:41;;;;;;;5.88;1.63;;;11.30;99.90;;;;;;6201034;23;20086;-85
2022/11/02 01:09:08;;;;;;;4.40;1.30;;;11.30;99.90;;;;;;6200365;22;20593;-84
2022/11/02 01:11:33;;;;;;;4.50;1.10;;;11.20;99.90;;;;;;6223671;23;20019;-84
2022/11/02 01:13:59;;;;;;;2.50;1.02;;;11.10;99.90;;;;;;6198399;22;20016;-85
2022/11/02 01:16:26;;;;;;;4.75;1.50;;;11.10;99.90;;;;;;6200002;22;20390;-84
2022/11/02 01:18:52;;;;;;;3.97;1.20;;;11.10;99.90;;;;;;6225285;22;20360;-85
2022/11/02 01:21:19;;;;;;;5.30;1.10;;;11.20;99.90;;;;;;6225377;23;20387;-86
2022/11/02 01:23:45;;;;;;;3.75;1.10;;;11.00;99.90;;;;;;6199765;22;20016;-85
2022/11/02 01:26:11;;;;;;;3.70;0.90;;;11.00;99.90;;;;;;6225942;22;20019;-85
2022/11/02 01:28:38;;;;;;;4.47;1.30;;;11.00;99.90;;;;;;6200811;22;20419;-84
2022/11/02 01:31:05;;;;;;;3.70;1.23;;;11.10;99.90;;;;;;6201004;23;20398;-87
2022/11/02 01:33:34;;;;;;;1.92;0.65;;;11.00;99.90;;;;;;6200793;23;20008;-85
2022/11/02 01:36:03;;;;;;;1.65;0.73;;;11.00;99.90;;;;;;6201155;22;20051;-86
2022/11/02 01:38:30;;;;;;;4.10;1.17;;;10.90;99.90;;;;;;6201502;22;20330;-86
2022/11/02 01:40:56;;;;;;;2.58;1.00;;;10.80;99.90;;;;;;6200040;22;20023;-85
2022/11/02 01:43:22;;;;;;;2.28;1.20;;;10.90;99.90;;;;;;6201183;22;20016;-85
2022/11/02 01:45:57;;;;;;;5.00;1.30;;;10.90;99.90;;;;;;6201865;22;20354;-85
2022/11/02 01:48:31;;;;;;;2.85;1.00;;;10.90;99.90;;;;;;6201331;22;20032;-86
2022/11/02 01:50:57;;;;;;;4.45;1.20;;;10.80;99.90;;;;;;6202736;22;20343;-86
2022/11/02 01:53:23;;;;;;;2.25;1.02;;;10.80;99.90;;;;;;6201896;22;20024;-86
2022/11/02 01:55:49;;;;;;;2.55;1.05;;;10.80;99.90;;;;;;6202059;22;20429;-86
2022/11/02 01:58:18;;;;;;;2.55;1.17;;;10.80;99.90;;;;;;6201496;22;20026;-85
2022/11/02 02:00:44;;;;;;;2.67;1.20;;;10.90;99.90;;;;;;6203038;22;20094;-85
2022/11/02 02:03:17;;;;;;;5.00;1.48;;;10.90;99.90;;;;;;6204014;22;20056;-85
2022/11/02 02:06:07;;;;;;;5.72;1.50;;;10.90;99.90;;;;;;6203329;22;20023;-86
2022/11/02 02:08:37;;;;;;;5.82;1.33;;;10.90;99.90;;;;;;6236632;22;20019;-86
2022/11/02 02:11:23;;;;;;;5.97;1.95;;;10.90;99.90;;;;;;6200515;22;20026;-86
2022/11/02 02:13:50;;;;;;;8.30;1.83;;;10.90;99.90;;;;;;6232141;22;20664;-85
2022/11/02 02:16:26;;;;;;;5.53;2.17;;;11.00;99.90;;;;;;6200267;22;20016;-86
2022/11/02 02:18:58;;;;;;;9.52;2.30;;;11.10;99.90;;;;;;6200776;22;20094;-86
2022/11/02 02:21:54;;;;;;;6.47;2.42;;;11.10;99.90;;;;;;6202538;23;20403;-86
2022/11/02 02:24:35;;;;;;;;;;;11.20;99.90;;;;;;6200803;22;20016;-85
2022/11/02 02:27:22;;;;;;;8.77;2.70;;;11.30;99.90;;;;;;6200314;23;19989;-86
2022/11/02 02:30:08;;;;;;;9.38;3.17;;;11.30;99.90;;;;;;6200529;22;20014;-85
2022/11/02 02:32:46;;;;;;;10.38;3.40;;;11.30;99.90;;;;;;6199931;22;20012;-85
2022/11/02 02:35:38;;;;;;;11.65;3.17;;;11.40;99.90;;;;;;6224917;23;20034;-86
2022/11/02 02:38:16;;;;;;;13.02;3.13;;;11.30;99.90;;;;;;6224692;23;20524;-86
2022/11/02 02:41:09;;;;;;;13.80;2.90;;;11.40;99.90;;;;;;6224401;23;20020;-85
2022/11/02 02:43:46;;;;;;;14.27;3.05;;;11.40;99.90;;;;;;6222471;22;20051;-86
2022/11/02 02:46:11;;;;;;;9.60;2.97;;;11.50;99.90;;;;;;6224781;23;20120;-86
2022/11/02 02:48:41;;;;;;;10.27;2.50;;;11.40;99.90;;;;;;6200923;22;20047;-85
2022/11/02 02:51:12;;;;;;;10.90;2.75;;;11.50;99.90;;;;;;6225455;23;20273;-86
2022/11/02 02:53:43;;;;;;;7.35;2.42;;;11.40;99.90;;;;;;6200518;22;20123;-86
2022/11/02 02:56:10;;;;;;;9.30;2.10;;;11.40;99.90;;;;;;6199054;23;20134;-86
2022/11/02 02:59:06;;;;;;;7.93;2.22;;;11.40;99.90;;;;;;6198353;22;20031;-86
2022/11/02 03:01:34;;;;;;;6.03;1.90;;;11.40;99.90;;;;;;6200124;23;20040;-86
2022/11/02 03:03:59;;;;;;;5.45;1.42;;;11.30;99.90;;;;;;6225529;23;20436;-85
2022/11/02 03:06:31;;;;;;;6.25;1.88;;;11.30;99.90;;;;;;6199865;22;20048;-85
2022/11/02 03:09:12;;;;;;;5.50;1.70;;;11.20;99.90;;;;;;6197258;22;20012;-86
2022/11/02 03:11:58;;;;;;;6.20;1.58;;;11.10;99.90;;;;;;6198161;22;20019;-86
2022/11/02 03:14:36;;;;;;;4.50;1.38;;;11.10;99.90;;;;;;6197407;22;20015;-85
2022/11/02 03:17:24;;;;;;;4.97;1.20;;;11.00;99.90;;;;;;6198436;22;20020;-85
2022/11/02 03:19:54;;;;;;;2.95;1.33;;;10.90;99.90;;;;;;6198389;22;20032;-86
2022/11/02 03:22:31;;;;;;;4.22;1.40;;;10.80;99.90;;;;;;6198854;22;20027;-86
2022/11/02 03:25:07;;;;;;;3.20;1.45;;;10.80;99.90;;;;;;6197275;22;20020;-86
2022/11/02 03:27:49;;;;;;;2.75;1.05;;;10.80;99.90;;;;;;6197524;22;20403;-85
2022/11/02 03:30:21;;;;;;;5.25;1.45;;;10.70;99.90;;;;;;6198813;23;20008;-85
2022/11/02 03:32:57;;;;;;;5.97;1.15;;;10.70;99.90;;;;;;6198121;22;20021;-85
2022/11/02 03:35:51;;;;;;;4.88;1.50;;;10.70;99.90;;;;;;6199396;22;20016;-85
2022/11/02 03:38:23;;;;;;;5.88;1.50;;;10.70;99.90;;;;;;6198782;22;20344;-85
2022/11/02 03:40:53;;;;;;;7.22;1.60;;;10.60;99.90;;;;;;6197407;22;20038;-86
2022/11/02 03:43:23;;;;;;;6.82;1.83;;;10.60;99.90;;;;;;6197613;23;20381;-85
2022/11/02 03:46:00;;;;;;;6.45;1.52;;;10.50;99.90;;;;;;6198373;22;20016;-85
2022/11/02 03:48:31;;;;;;;4.57;1.40;;;10.60;99.90;;;;;;6225274;23;20393;-86
2022/11/02 03:51:01;;;;;;;2.55;1.40;;;10.60;99.90;;;;;;6228122;23;20008;-86
2022/11/02 03:53:38;;;;;;;8.73;1.73;;;10.60;99.90;;;;;;6202417;22;20028;-85
2022/11/02 03:56:28;;;;;;;7.45;1.50;;;10.50;99.90;;;;;;6200227;22;20084;-85
2022/11/02 03:58:55;;;;;;;6.25;1.85;;;10.60;99.90;;;;;;6199432;22;20016;-85
2022/11/02 04:01:20;;;;;;;6.75;1.70;;;10.50;99.90;;;;;;6227467;23;20028;-86
2022/11/02 04:03:47;;;;;;;6.15;1.77;;;10.50;99.90;;;;;;6228323;22;20012;-86
2022/11/02 04:06:13;;;;;;;6.68;1.63;;;10.50;99.90;;;;;;6201846;22;20051;-85
2022/11/02 04:08:44;;;;;;;6.85;1.80;;;10.50;99.90;;;;;;6200219;22;20061;-85
2022/11/02 04:16:42;;;;;;;7.47;1.83;;;10.60;99.90;;;;;;6226510;23;20521;-85
2022/11/02 04:19:27;;;;;;;8.43;1.95;;;10.50;99.90;;;;;;6200793;23;20045;-85
2022/11/02 04:27:25;;;;;;;7.68;1.95;;;10.80;99.90;;;;;;6224860;23;20351;-85
2022/11/02 04:29:51;;;;;;;8.50;2.30;;;10.80;99.90;;;;;;6199774;22;20012;-84
2022/11/02 04:35:02;;;;;;;10.23;1.63;;;10.80;99.90;;;;;;6226158;23;20027;-86
2022/11/02 04:40:20;;;;;;;7.35;2.13;;;10.80;99.90;;;;;;6225492;23;20165;-85
2022/11/02 04:42:46;;;;;;;8.18;1.80;;;10.90;99.90;;;;;;6224844;22;20166;-85
2022/11/02 04:45:12;;;;;;;4.53;1.85;;;10.90;99.90;;;;;;6199796;22;20024;-86
2022/11/02 04:47:38;;;;;;;7.15;1.60;;;10.90;99.90;;;;;;6200491;22;20088;-86
2022/11/02 04:50:04;;;;;;;9.40;2.38;;;10.90;99.90;;;;;;6200801;22;20175;-86
2022/11/02 04:52:29;;;;;;;8.20;1.92;;;10.90;99.90;;;;;;6200452;22;20012;-86
2022/11/02 04:54:55;;;;;;;12.68;2.13;;;10.80;99.90;;;;;;6199951;22;20043;-85
2022/11/02 04:57:21;;;;;;;8.65;2.13;;;10.90;99.90;;;;;;6225343;22;20024;-86
2022/11/02 04:59:46;;;;;;;7.55;2.15;;;10.90;99.90;;;;;;6223835;22;20660;-85
2022/11/02 05:02:12;;;;;;;7.72;1.90;;;10.80;99.90;;;;;;6200080;22;20031;-85
2022/11/02 05:04:41;;;;;;;8.50;2.13;;;10.80;99.90;;;;;;6198330;22;20016;-85
2022/11/02 05:07:07;;;;;;;6.47;2.10;;;10.80;99.90;;;;;;6200273;22;20054;-86
2022/11/02 05:09:33;;;;;;;9.48;2.30;;;10.80;99.90;;;;;;6197658;22;20338;-85
2022/11/02 05:12:00;;;;;;;10.80;2.30;;;10.80;99.90;;;;;;6224191;22;20099;-85
2022/11/02 05:14:26;;;;;;;8.07;2.40;;;10.80;99.90;;;;;;6197225;22;20012;-86
2022/11/02 05:16:51;;;;;;;8.40;2.35;;;10.80;99.90;;;;;;6198570;22;20022;-86
2022/11/02 05:19:17;;;;;;;15.98;2.78;;;10.80;99.90;;;;;;6199522;22;20012;-86
2022/11/02 05:21:43;;;;;;;7.30;2.47;;;10.80;99.90;;;;;;6199507;22;20051;-85
2022/11/02 05:24:08;;;;;;;10.80;2.38;;;10.80;99.90;;;;;;6223196;22;20336;-85
2022/11/02 05:26:34;;;;;;;9.25;2.55;;;10.80;99.90;;;;;;6223114;22;20035;-86
2022/11/02 05:29:00;;;;;;;9.65;2.63;;;10.80;99.90;;;;;;6196617;22;20056;-85
2022/11/02 05:31:25;;;;;;;9.10;2.75;;;10.80;99.90;;;;;;6199411;23;20087;-85
2022/11/02 05:33:54;;;;;;;9.80;2.65;;;10.70;99.90;;;;;;6198825;22;20016;-85
2022/11/02 05:36:19;;;;;;;12.95;2.88;;;10.80;99.90;;;;;;6200020;22;20349;-85
2022/11/02 05:38:45;;;;;;;11.18;2.47;;;10.70;99.90;;;;;;6200175;22;20017;-85
2022/11/02 05:41:11;;;;;;;8.90;2.67;;;10.70;99.90;;;;;;6199136;22;20339;-85
2022/11/02 05:43:36;;;;;;;11.55;2.63;;;10.80;99.90;;;;;;6223164;22;20030;-86
2022/11/02 05:46:02;;;;;;;8.18;2.83;;;10.80;99.90;;;;;;6198671;22;20016;-85
2022/11/02 05:48:31;;;;;;;10.52;3.08;;;10.80;99.90;;;;;;6224299;23;20161;-86
2022/11/02 05:50:59;;;;;;;7.93;2.75;;;10.70;99.90;;;;;;6225292;23;20157;-85
2022/11/02 05:53:26;;;;;;;14.25;3.08;;;10.80;99.90;;;;;;6200133;22;20019;-86
2022/11/02 05:56:00;;;;;;;10.38;2.88;;;10.70;99.90;;;;;;6197979;22;20571;-85
2022/11/02 05:58:26;;;;;;;13.30;2.85;;;10.70;99.90;;;;;;6199199;22;20023;-84
2022/11/02 06:00:53;;;;;;;8.15;2.53;;;10.60;99.90;;;;;;6224611;22;20026;-85
2022/11/02 06:03:22;;;;;;;8.98;2.60;;;10.60;99.90;;;;;;6200698;22;20020;-85
2022/11/02 06:05:54;;;;;;;12.02;2.97;;;10.60;99.90;;;;;;6199070;22;20017;-85
2022/11/02 06:08:19;;;;;;;7.97;2.30;;;10.60;99.90;;;;;;6200426;22;20348;-85
2022/11/02 06:10:47;;;;;;;11.18;2.80;;;10.50;99.90;;;;;;6198877;22;20019;-85
2022/11/02 06:13:13;;;;;;;8.85;2.53;;;10.60;99.90;;;;;;6196889;22;20040;-85
2022/11/02 06:15:38;;;;;;;10.05;2.75;;;10.60;99.90;;;;;;6199449;22;20020;-85
2022/11/02 06:18:04;;;;;;;14.98;2.30;;;10.60;99.90;;;;;;6199095;22;20016;-85
2022/11/02 06:20:30;;;;;;;9.13;2.17;;;10.70;99.90;;;;;;6199353;22;20016;-86
2022/11/02 06:22:55;;;;;;;10.07;2.20;;;10.70;99.90;;;;;;6198831;22;20016;-85
2022/11/02 06:25:21;;;;;;;11.23;2.90;;;10.60;99.90;;;;;;6198147;22;20020;-85
2022/11/02 06:27:52;;;;;;;8.60;2.22;;;10.70;99.90;;;;;;6223249;22;20360;-85
2022/11/02 06:30:18;;;;;;;6.93;2.33;;;10.70;99.90;;;;;;6198337;22;20091;-86
2022/11/02 06:32:51;;;;;;;12.50;2.50;;;10.80;99.90;;;;;;6199593;22;20710;-85
2022/11/02 06:35:21;;;;;;;12.07;2.53;;;10.80;99.90;;;;;;6224342;22;20087;-85
2022/11/02 06:37:50;;;;;;;12.60;2.65;;;10.80;99.90;;;;;;6199238;22;20357;-85
2022/11/02 06:40:16;;;;;;;10.20;2.70;;;10.80;99.90;;;;;;6198650;22;20019;-84
2022/11/02 06:42:41;;;;;;;8.80;2.40;;;10.90;99.90;;;;;;6198866;22;20180;-85
2022/11/02 06:45:07;;;;;;;9.07;2.83;;;10.90;99.90;;;;;;6221982;23;20008;-85
2022/11/02 06:47:48;;;;;;;13.18;2.40;;;10.90;99.90;;;;;;6199840;22;20048;-85
2022/11/02 06:50:14;;;;;;;12.45;2.58;;;10.90;99.90;;;;;;6167247;22;20023;-85
2022/11/02 06:52:46;;;;;;;6.40;2.22;;;10.90;99.90;;;;;;6108741;23;20013;-85
2022/11/02 06:55:13;;;;;;;5.15;2.20;;;10.90;99.90;;;;;;6108135;23;20076;-85
2022/11/02 06:57:39;;;;;;;9.75;2.40;;;11.00;99.90;;;;;;6109329;23;20017;-86
2022/11/02 07:00:08;;;;;;;8.40;2.63;;;11.00;99.90;;;;;;6108341;23;20025;-85
2022/11/02 07:02:34;;;;;;;12.65;3.00;;;11.00;99.90;;;;;;6109634;23;20112;-85
2022/11/02 07:05:01;;;;;;;9.10;2.65;;;11.10;99.90;;;;;;6133795;23;20533;-85
2022/11/02 07:07:27;;;;;;;10.57;2.50;;;11.00;99.90;;;;;;6133742;23;20018;-85
2022/11/02 07:09:52;;;;;;;10.23;2.45;;;11.10;99.90;;;;;;6109492;23;20020;-86
2022/11/02 07:12:19;;;;;;;12.30;2.75;;;11.20;99.90;;;;;;6108086;22;20462;-84
2022/11/02 07:14:44;;;;;;;14.02;2.78;;;11.10;99.90;;;;;;6132363;23;20029;-85
2022/11/02 07:17:10;;;;;;;15.70;2.60;;;11.20;99.90;;;;;;6133005;23;20021;-85
2022/11/02 07:19:39;;;;;;;12.23;2.80;;;11.20;99.90;;;;;;6091814;23;20159;-85
2022/11/02 07:22:05;;;;;;;10.63;3.08;;;11.20;99.90;;;;;;6111634;23;20437;-85
2022/11/02 07:24:30;;;;;;;10.45;2.33;;;11.30;99.90;;;;;;6134306;23;20059;-85
2022/11/02 07:26:56;;;;;;;10.85;2.65;;;11.20;99.90;;;;;;6134358;23;20032;-85
2022/11/02 07:29:22;;;;;;;10.95;2.75;;;11.30;99.90;;;;;;6109497;23;20045;-84
2022/11/02 07:31:47;;;;;;;9.02;2.25;;;11.30;99.90;;;;;;6112115;23;20194;-85
2022/11/02 07:34:13;;;;;;;10.68;2.33;;;11.40;99.90;;;;;;6132172;23;20436;-85
2022/11/02 07:36:42;;;;;;;8.60;2.30;;;11.40;99.90;;;;;;6109903;23;20446;-85
2022/11/02 07:39:08;;;;;;;12.18;2.45;;;11.40;99.90;;;;;;6109002;23;20486;-84
2022/11/02 07:41:34;;;;;;;10.70;2.50;;;11.40;99.90;;;;;;6107728;23;20124;-85
2022/11/02 07:44:00;;;;;;;12.75;2.53;;;11.30;99.90;;;;;;6107405;23;20100;-85
2022/11/02 07:46:26;;;;;;;10.27;2.50;;;11.40;99.90;;;;;;6109270;23;20470;-85
2022/11/02 07:48:51;;;;;;;7.43;1.85;;;11.30;99.90;;;;;;6108796;23;20303;-86
2022/11/02 07:51:20;;;;;;;13.27;2.40;;;11.40;99.90;;;;;;6108540;23;20013;-85
2022/11/02 07:53:46;;;;;;;9.90;1.88;;;11.30;99.90;;;;;;6109069;23;20022;-85
2022/11/02 07:56:11;;;;;;;9.68;1.75;;;11.30;99.90;;;;;;6106829;23;20033;-85
2022/11/02 07:58:37;;;;;;;9.23;1.80;;;11.40;99.90;;;;;;6108673;23;20013;-85
2022/11/02 08:01:02;;;;;;;7.82;1.92;;;11.50;99.90;;;;;;6132179;23;20014;-85
2022/11/02 08:03:29;;;;;;;9.82;2.30;;;11.60;99.90;;;;;;6108412;23;20017;-85
2022/11/02 08:05:55;;;;;;;9.65;1.88;;;11.60;99.90;;;;;;6108822;23;20107;-85
2022/11/02 08:08:23;;;;;;;4.70;1.80;;;11.60;99.90;;;;;;6109354;23;20067;-84
2022/11/02 08:10:51;;;;;;;11.95;1.90;;;11.70;99.90;;;;;;6107383;23;20036;-85
2022/11/02 08:13:19;;;;;;;10.23;2.10;;;11.70;99.90;;;;;;6132178;23;20013;-85
2022/11/02 08:15:54;;;;;;;5.95;1.90;;;11.80;99.90;;;;;;6108185;23;20053;-86
2022/11/02 08:18:22;;;;;;;9.15;1.75;;;11.80;99.90;;;;;;6133885;23;20017;-86
2022/11/02 08:20:49;;;;;;;6.47;1.73;;;11.90;99.90;;;;;;6109341;23;20018;-85
2022/11/02 08:23:16;;;;;;;7.78;2.00;;;11.90;99.90;;;;;;6109124;23;20022;-85
2022/11/02 08:25:47;;;;;;;7.28;1.70;;;12.00;99.90;;;;;;6132224;23;20124;-84
2022/11/02 08:28:15;;;;;;;5.03;1.42;;;12.10;99.90;;;;;;6108359;23;20389;-85
2022/11/02 08:30:41;;;;;;;5.18;1.50;;;12.10;99.90;;;;;;6108717;23;20013;-84
2022/11/02 08:33:14;;;;;;;5.75;1.40;;;12.10;99.90;;;;;;6133488;23;20021;-84
2022/11/02 08:35:41;;;;;;;7.00;1.30;;;12.00;99.90;;;;;;6134149;23;20381;-85
2022/11/02 08:38:07;;;;;;;5.20;1.38;;;11.90;99.90;;;;;;6110844;23;20427;-84
2022/11/02 08:40:34;;;;;;;7.25;1.52;;;11.90;99.90;;;;;;6133491;23;20268;-85
2022/11/02 08:43:05;;;;;;;6.93;1.45;;;12.00;99.90;;;;;;6132893;23;20010;-85
2022/11/02 08:45:32;;;;;;;7.68;2.10;;;12.10;99.90;;;;;;6109376;23;20240;-85
2022/11/02 08:47:58;;;;;;;6.90;2.63;;;12.10;99.90;;;;;;6109006;23;20463;-85
2022/11/02 08:50:25;;;;;;;5.07;2.13;;;12.10;99.90;;;;;;6109621;23;20017;-85
2022/11/02 08:52:50;;;;;;;9.77;1.98;;;12.00;99.90;;;;;;6133813;23;20455;-86
2022/11/02 08:55:16;;;;;;;7.30;2.30;;;12.10;99.90;;;;;;6108602;23;20106;-85
2022/11/02 08:57:47;;;;;;;6.03;1.50;;;11.90;99.90;;;;;;6108079;23;20078;-85
2022/11/02 09:00:13;;;;;;;4.97;1.67;;;11.90;99.90;;;;;;6133089;23;20052;-86
2022/11/02 09:02:39;;;;;;;6.72;1.83;;;11.90;99.90;;;;;;6133850;23;20100;-85
2022/11/02 09:05:05;;;;;;;7.25;1.63;;;11.80;99.90;;;;;;6108692;23;20052;-85
2022/11/02 09:07:31;;;;;;;8.07;1.88;;;11.80;99.90;;;;;;6110210;23;20018;-85
2022/11/02 09:09:56;;;;;;;4.70;1.38;;;12.00;99.90;;;;;;6132594;23;20010;-85
2022/11/02 09:12:22;;;;;;;5.43;1.55;;;12.20;99.90;;;;;;6107978;23;20202;-85
2022/11/02 09:14:50;;;;;;;8.30;1.90;;;12.40;47.90;;;;;;6133300;23;20029;-84
2022/11/02 09:17:15;;;;;;;6.97;1.90;;;12.40;1.70;;;;;;6133625;23;20759;-85
2022/11/02 09:19:41;;;;;;;9.02;1.85;;;12.40;1.00;;;;;;6112079;23;20029;-89
2022/11/02 09:22:07;;;;;;;5.85;1.52;;;12.50;99.90;;;;;;6112792;23;20067;-89
2022/11/02 09:24:32;;;;;;;6.13;1.30;;;12.70;21.90;;;;;;6135605;23;20471;-90
2022/11/02 09:26:58;;;;;;;16.85;2.42;;;12.90;1.00;;;;;;6135656;23;20101;-89
2022/11/02 09:29:23;;;;;;;10.68;1.70;;;13.00;99.90;;;;;;6135697;23;20049;-89
2022/11/02 09:31:49;;;;;;;6.05;1.52;;;13.00;99.90;;;;;;6136920;23;20017;-90
2022/11/02 09:34:18;;;;;;;6.88;2.13;;;13.00;99.90;;;;;;6111967;23;20017;-90
2022/11/02 09:36:44;;;;;;;8.63;1.65;;;13.00;99.90;;;;;;6137523;23;20402;-90
2022/11/02 09:39:10;;;;;;;9.07;1.73;;;13.10;99.90;;;;;;6136170;23;20081;-89
2022/11/02 09:41:54;;;;;;;11.65;2.10;;;13.20;99.90;;;;;;6110433;23;20033;-89
2022/11/02 09:44:29;;;;;;;10.25;2.00;;;13.20;99.90;;;;;;6109593;23;20372;-89
2022/11/02 09:46:55;;;;;;;7.07;1.67;;;13.20;99.90;;;;;;6111644;23;20022;-89
2022/11/02 09:49:24;;;;;;;8.38;1.65;;;13.30;1.00;;;;;;6112279;23;20009;-90
2022/11/02 09:51:59;;;;;;;11.98;1.83;;;13.30;99.90;;;;;;6116126;23;20021;-90
2022/11/02 09:54:46;;;;;;;7.78;2.00;;;13.50;10.60;;;;;;6115686;23;20461;-89
2022/11/02 09:57:31;;;;;;;9.38;2.05;;;13.60;99.90;;;;;;6115453;23;20025;-90
2022/11/02 09:59:56;;;;;;;6.80;1.67;;;13.50;99.90;;;;;;6140432;23;20064;-91
2022/11/02 10:02:45;;;;;;;6.35;1.75;;;13.60;8.50;;;;;;6116723;23;20213;-90
2022/11/02 10:05:26;;;;;;;9.35;1.50;;;13.50;99.90;;;;;;6141193;23;20055;-91
2022/11/02 10:08:13;;;;;;;8.15;1.85;;;13.60;99.90;;;;;;6116809;23;20017;-88
2022/11/02 10:10:49;;;;;;;7.43;1.40;;;13.40;99.90;;;;;;6116043;23;20456;-90
2022/11/02 10:13:35;;;;;;;6.28;1.60;;;13.30;99.90;;;;;;6140663;23;20013;-91
2022/11/02 10:16:11;;;;;;;8.05;2.35;;;13.50;99.90;;;;;;6116286;23;20350;-90
2022/11/02 10:18:38;;;;;;;9.13;1.80;;;13.60;1.00;;;;;;6117458;23;20021;-90
2022/11/02 10:21:12;;;;;;;7.32;1.60;;;13.60;99.90;;;;;;6117079;23;20017;-90
2022/11/02 10:23:52;;;;;;;7.90;1.95;;;13.50;99.90;;;;;;6116981;23;20017;-89
2022/11/02 10:26:23;;;;;;;8.52;1.77;;;13.50;99.90;;;;;;6114676;23;20404;-89
2022/11/02 10:29:11;;;;;;;7.38;2.03;;;13.50;99.90;;;;;;6139603;23;20009;-90
2022/11/02 10:31:36;;;;;;;7.78;1.83;;;13.70;99.90;;;;;;6140475;23;20085;-89
2022/11/02 10:34:28;;;;;;;7.95;2.03;;;13.70;99.90;;;;;;6141282;23;20256;-90
2022/11/02 10:37:35;;;;;;;12.18;1.88;;;13.80;99.90;;;;;;6117007;23;20028;-89
2022/11/02 10:40:36;;;;;;;9.45;1.85;;;13.90;99.90;;;;;;6140022;23;20024;-90
2022/11/02 10:43:44;;;;;;;7.78;1.98;;;13.90;99.90;;;;;;6115094;23;20339;-89
2022/11/02 10:46:12;;;;;;;7.45;1.95;;;13.80;1.00;;;;;;6116185;23;20305;-90
2022/11/02 10:48:45;;;;;;;4.78;1.45;;;13.90;99.90;;;;;;6116191;23;20027;-90
2022/11/02 10:51:13;;;;;;;5.80;1.48;;;13.60;99.90;;;;;;6114200;23;20045;-84
2022/11/02 10:53:46;;;;;;;5.47;1.73;;;13.60;99.90;;;;;;6137507;22;20072;-84
2022/11/02 10:56:26;;;;;;;7.15;1.77;;;13.60;1.00;;;;;;6135469;23;20021;-85
2022/11/02 10:58:58;;;;;;;8.07;1.85;;;13.70;99.90;;;;;;6137385;23;20056;-84
2022/11/02 11:01:25;;;;;;;9.02;1.75;;;13.60;99.90;;;;;;6112560;23;20028;-84
2022/11/02 11:04:02;;;;;;;8.10;1.77;;;13.60;99.90;;;;;;6113875;23;20362;-84
2022/11/02 11:06:29;;;;;;;8.50;1.60;;;13.70;99.90;;;;;;6112722;23;20020;-84
2022/11/02 11:09:03;;;;;;;9.30;1.80;;;13.80;99.90;;;;;;6137530;23;20013;-84
2022/11/02 11:11:38;;;;;;;8.05;1.45;;;13.70;99.90;;;;;;6112769;23;20013;-84
2022/11/02 11:14:25;;;;;;;7.95;1.50;;;13.60;99.90;;;;;;6112240;23;20063;-84
2022/11/02 11:16:52;;;;;;;11.52;1.92;;;13.50;99.90;;;;;;6113197;23;20539;-84
2022/11/02 11:19:31;;;;;;;5.25;1.75;;;13.30;99.90;;;;;;6113763;23;20013;-84
2022/11/02 11:21:57;;;;;;;8.20;1.67;;;13.40;99.90;;;;;;6137435;23;20067;-84
2022/11/02 11:24:31;;;;;;;7.53;1.92;;;13.40;99.90;;;;;;6112516;23;20451;-83
2022/11/02 11:27:03;;;;;;;7.43;1.53;;;13.20;99.90;;;;;;6137810;23;20036;-84
2022/11/02 11:29:34;;;;;;;10.82;1.52;;;13.10;78.90;;;;;;6112926;23;20335;-83
2022/11/02 11:32:01;;;;;;;8.50;1.58;;;13.10;1.00;;;;;;6114679;23;20013;-84
2022/11/02 11:34:35;;;;;;;8.60;1.50;;;13.10;1.00;;;;;;6137268;23;20198;-83
2022/11/02 11:37:16;;;;;;;5.50;1.50;;;13.00;1.00;;;;;;6137249;23;20024;-84
2022/11/02 11:39:45;;;;;;;9.38;1.20;;;13.00;99.90;;;;;;6112991;23;20456;-84
2022/11/02 11:42:23;;;;;;;6.72;1.40;;;13.00;99.90;;;;;;6136843;23;20021;-84
2022/11/02 11:45:06;;;;;;;8.25;1.75;;;13.00;99.90;;;;;;6111569;23;20227;-84
2022/11/02 11:47:39;;;;;;;9.32;1.75;;;13.10;99.90;;;;;;6113385;23;20426;-84
2022/11/02 11:50:16;;;;;;;6.07;1.20;;;13.30;99.90;;;;;;6111324;23;20027;-83
2022/11/02 11:52:42;;;;;;;7.55;1.58;;;13.30;99.90;;;;;;6112557;22;20029;-83
2022/11/02 11:55:24;;;;;;;4.85;1.20;;;13.40;99.90;;;;;;6112194;23;20013;-84
2022/11/02 11:58:14;;;;;;;5.13;1.35;;;13.50;99.90;;;;;;6110762;22;20085;-84
2022/11/02 12:00:40;;;;;;;8.18;1.38;;;13.60;99.90;;;;;;6136581;23;20044;-84
2022/11/02 12:03:09;;;;;;;4.35;1.30;;;13.50;99.90;;;;;;6113004;23;20462;-84
2022/11/02 12:06:01;;;;;;;5.97;1.48;;;13.70;99.90;;;;;;6113208;23;20013;-84
2022/11/02 12:08:40;;;;;;;5.18;1.38;;;13.80;99.90;;;;;;6137252;23;20016;-84
2022/11/02 12:11:24;;;;;;;7.13;1.55;;;13.90;99.90;;;;;;6112546;23;20017;-84
2022/11/02 12:14:14;;;;;;;4.67;1.27;;;14.10;99.90;;;;;;6112326;23;20468;-83
2022/11/02 12:17:06;;;;;;;6.22;1.65;;;14.20;99.90;;;;;;6113373;23;20244;-85
2022/11/02 12:19:38;;;;;;;5.53;1.55;;;14.20;99.90;;;;;;6114266;23;20323;-84
2022/11/02 12:22:43;;;;;;;7.63;1.58;;;14.00;99.90;;;;;;6139139;23;20028;-84
2022/11/02 12:25:27;;;;;;;9.40;1.40;;;13.70;99.90;;;;;;6114384;23;20474;-84
2022/11/02 12:28:24;;;;;;;6.15;1.33;;;13.80;99.90;;;;;;6113461;23;20521;-84
2022/11/02 12:31:14;;;;;;;8.90;1.58;;;14.10;99.90;;;;;;6114439;23;20017;-84
2022/11/02 12:33:58;;;;;;;7.13;1.58;;;14.20;99.90;;;;;;6113651;23;20377;-84
2022/11/02 12:36:45;;;;;;;8.25;1.83;;;14.30;99.90;;;;;;6138093;23;20013;-84
2022/11/02 12:39:28;;;;;;;6.35;1.67;;;14.30;99.90;;;;;;6137279;23;20051;-84
2022/11/02 12:42:10;;;;;;;9.60;2.10;;;14.40;91.10;;;;;;6113591;23;20650;-83
2022/11/02 12:45:00;;;;;;;13.05;2.20;;;14.30;99.50;;;;;;6112563;23;20017;-84
2022/11/02 12:47:35;;;;;;;6.15;1.45;;;14.40;75.80;;;;;;6114336;23;20397;-84
2022/11/02 12:50:20;;;;;;;4.82;1.33;;;14.40;2.30;;;;;;6139481;23;20024;-83
2022/11/02 12:53:01;;;;;;;13.40;2.08;;;14.40;66.60;;;;;;6113928;22;20025;-84
2022/11/02 12:55:39;;;;;;;12.60;1.80;;;14.40;63.50;;;;;;6137166;23;20437;-84
2022/11/02 12:58:19;;;;;;;9.80;2.47;;;14.60;99.90;;;;;;6113006;23;20013;-84
2022/11/02 13:00:49;;;;;;;9.07;1.63;;;14.60;96.00;;;;;;6113562;23;20680;-83
2022/11/02 13:03:33;;;;;;;7.82;2.13;;;14.70;36.10;;;;;;6113943;23;20419;-84
2022/11/02 13:06:05;;;;;;;8.07;2.03;;;14.70;62.30;;;;;;6114479;23;20021;-83
2022/11/02 13:08:40;;;;;;;6.07;1.60;;;14.90;41.90;;;;;;6114777;23;20009;-83
2022/11/02 13:11:22;;;;;;;8.13;1.48;;;15.00;9.60;;;;;;6136788;23;20053;-83
2022/11/02 13:13:53;;;;;;;6.00;1.75;;;15.00;13.10;;;;;;6114010;23;20954;-84
2022/11/02 13:16:43;;;;;;;10.70;1.92;;;14.90;10.20;;;;;;6138220;23;20127;-83
2022/11/02 13:19:54;;;;;;;7.30;1.25;;;15.00;1.00;;;;;;6115231;23;20017;-84
2022/11/02 13:22:32;;;;;;;6.38;1.45;;;14.90;14.20;;;;;;6114109;23;20034;-84
2022/11/02 13:25:25;;;;;;;6.78;1.83;;;14.90;1.00;;;;;;6113334;23;20017;-83